sensor_id;sensor_type;location;lat;lon;timestamp;noise_LAeq;noise_LA_min;noise_LA_max;noise_LA01;noise_LA95
73342;Laerm;61578;52.002;5.468;2023-01-05T00:00:19;40.39;37.59;44.30;;
73342;Laerm;61578;52.002;5.468;2023-01-05T00:00:50;40.26;37.29;43.68;;
73342;Laerm;61578;52.002;5.468;2023-01-05T00:01:21;40.22;36.95;43.67;;
73342;Laerm;61578;52.002;5.468;2023-01-05T00:01:52;40.14;36.91;43.77;;
73342;Laerm;61578;52.002;5.468;2023-01-05T00:02:23;40.32;37.49;43.62;;
73342;Laerm;61578;52.002;5.468;2023-01-05T00:02:54;40.14;37.24;43.91;;
73342;Laerm;61578;52.002;5.468;2023-01-05T00:03:24;40.19;37.17;43.49;;
73342;Laerm;61578;52.002;5.468;2023-01-05T00:03:55;40.37;37.59;46.27;;
73342;Laerm;61578;52.002;5.468;2023-01-05T00:04:26;40.82;37.61;50.77;;
73342;Laerm;61578;52.002;5.468;2023-01-05T00:04:57;40.27;37.43;43.75;;
73342;Laerm;61578;52.002;5.468;2023-01-05T00:05:28;40.58;37.32;45.77;;
73342;Laerm;61578;52.002;5.468;2023-01-05T00:06:08;40.33;37.10;43.99;;
73342;Laerm;61578;52.002;5.468;2023-01-05T00:06:40;40.13;37.49;43.63;;
73342;Laerm;61578;52.002;5.468;2023-01-05T00:07:12;40.61;37.69;43.34;;
73342;Laerm;61578;52.002;5.468;2023-01-05T00:07:42;39.96;37.35;43.08;;
73342;Laerm;61578;52.002;5.468;2023-01-05T00:08:14;40.16;37.29;43.33;;
73342;Laerm;61578;52.002;5.468;2023-01-05T00:08:45;40.22;37.57;43.55;;
73342;Laerm;61578;52.002;5.468;2023-01-05T00:09:18;40.48;38.03;43.61;;
73342;Laerm;61578;52.002;5.468;2023-01-05T00:09:49;40.52;37.39;43.97;;
73342;Laerm;61578;52.002;5.468;2023-01-05T00:10:19;40.53;37.57;45.49;;
73342;Laerm;61578;52.002;5.468;2023-01-05T00:11:13;40.71;37.48;48.98;;
73342;Laerm;61578;52.002;5.468;2023-01-05T00:12:04;40.29;37.37;43.57;;
73342;Laerm;61578;52.002;5.468;2023-01-05T00:12:54;40.37;37.12;45.04;;
73342;Laerm;61578;52.002;5.468;2023-01-05T00:13:43;40.46;37.39;47.39;;
73342;Laerm;61578;52.002;5.468;2023-01-05T00:14:33;40.16;37.28;43.45;;
73342;Laerm;61578;52.002;5.468;2023-01-05T00:15:22;40.21;37.16;43.46;;
73342;Laerm;61578;52.002;5.468;2023-01-05T00:16:13;40.98;37.21;45.33;;
73342;Laerm;61578;52.002;5.468;2023-01-05T00:17:04;41.07;37.91;50.98;;
73342;Laerm;61578;52.002;5.468;2023-01-05T00:17:54;40.67;37.45;44.29;;
73342;Laerm;61578;52.002;5.468;2023-01-05T00:18:43;40.28;37.37;44.06;;
73342;Laerm;61578;52.002;5.468;2023-01-05T00:19:33;40.70;37.54;52.41;;
73342;Laerm;61578;52.002;5.468;2023-01-05T00:20:23;40.42;37.65;43.72;;
73342;Laerm;61578;52.002;5.468;2023-01-05T00:21:14;40.30;37.57;44.25;;
73342;Laerm;61578;52.002;5.468;2023-01-05T00:22:18;40.22;36.98;44.44;;
73342;Laerm;61578;52.002;5.468;2023-01-05T00:23:02;40.05;37.29;43.42;;
73342;Laerm;61578;52.002;5.468;2023-01-05T00:23:33;40.09;37.61;43.75;;
73342;Laerm;61578;52.002;5.468;2023-01-05T00:24:04;40.18;37.39;43.23;;
73342;Laerm;61578;52.002;5.468;2023-01-05T00:24:35;40.05;37.24;43.86;;
73342;Laerm;61578;52.002;5.468;2023-01-05T00:25:43;40.26;36.85;43.22;;
73342;Laerm;61578;52.002;5.468;2023-01-05T00:26:14;40.34;37.12;45.68;;
73342;Laerm;61578;52.002;5.468;2023-01-05T00:26:48;40.22;37.37;43.57;;
73342;Laerm;61578;52.002;5.468;2023-01-05T00:27:19;40.58;37.86;49.05;;
73342;Laerm;61578;52.002;5.468;2023-01-05T00:27:51;41.03;37.66;50.53;;
73342;Laerm;61578;52.002;5.468;2023-01-05T00:28:24;40.71;37.60;47.32;;
73342;Laerm;61578;52.002;5.468;2023-01-05T00:28:54;40.26;37.77;43.03;;
73342;Laerm;61578;52.002;5.468;2023-01-05T00:29:25;40.49;37.58;47.43;;
73342;Laerm;61578;52.002;5.468;2023-01-05T00:29:57;40.12;37.54;43.53;;
73342;Laerm;61578;52.002;5.468;2023-01-05T00:30:43;40.35;36.56;50.83;;
73342;Laerm;61578;52.002;5.468;2023-01-05T00:31:14;40.49;37.34;45.87;;
73342;Laerm;61578;52.002;5.468;2023-01-05T00:31:48;40.27;37.42;45.24;;
73342;Laerm;61578;52.002;5.468;2023-01-05T00:32:20;40.34;37.62;44.11;;
73342;Laerm;61578;52.002;5.468;2023-01-05T00:32:52;40.16;37.44;43.11;;
73342;Laerm;61578;52.002;5.468;2023-01-05T00:33:22;40.60;37.58;43.99;;
73342;Laerm;61578;52.002;5.468;2023-01-05T00:33:53;40.34;37.52;43.94;;
73342;Laerm;61578;52.002;5.468;2023-01-05T00:34:24;40.32;37.55;44.08;;
73342;Laerm;61578;52.002;5.468;2023-01-05T00:34:57;40.22;37.31;43.61;;
73342;Laerm;61578;52.002;5.468;2023-01-05T00:35:29;40.28;37.36;43.51;;
73342;Laerm;61578;52.002;5.468;2023-01-05T00:35:59;40.24;37.57;44.48;;
73342;Laerm;61578;52.002;5.468;2023-01-05T00:36:30;40.23;37.46;43.32;;
73342;Laerm;61578;52.002;5.468;2023-01-05T00:37:07;40.14;37.44;42.98;;
73342;Laerm;61578;52.002;5.468;2023-01-05T00:37:39;40.14;37.58;43.42;;
73342;Laerm;61578;52.002;5.468;2023-01-05T00:38:10;40.16;37.06;43.55;;
73342;Laerm;61578;52.002;5.468;2023-01-05T00:38:41;40.05;37.20;43.73;;
73342;Laerm;61578;52.002;5.468;2023-01-05T00:39:12;40.33;37.58;44.44;;
73342;Laerm;61578;52.002;5.468;2023-01-05T00:39:43;40.23;37.65;44.70;;
73342;Laerm;61578;52.002;5.468;2023-01-05T00:40:18;40.45;37.48;43.87;;
73342;Laerm;61578;52.002;5.468;2023-01-05T00:40:49;40.31;37.44;44.54;;
73342;Laerm;61578;52.002;5.468;2023-01-05T00:41:20;40.30;37.68;43.51;;
73342;Laerm;61578;52.002;5.468;2023-01-05T00:41:51;40.04;37.36;43.42;;
73342;Laerm;61578;52.002;5.468;2023-01-05T00:42:22;40.21;37.53;44.41;;
73342;Laerm;61578;52.002;5.468;2023-01-05T00:42:53;40.17;37.55;43.89;;
73342;Laerm;61578;52.002;5.468;2023-01-05T00:43:24;40.41;37.31;44.91;;
73342;Laerm;61578;52.002;5.468;2023-01-05T00:43:54;40.29;37.41;43.37;;
73342;Laerm;61578;52.002;5.468;2023-01-05T00:44:25;40.46;37.60;44.05;;
73342;Laerm;61578;52.002;5.468;2023-01-05T00:44:56;40.33;37.58;43.96;;
73342;Laerm;61578;52.002;5.468;2023-01-05T00:45:27;40.21;37.26;43.45;;
73342;Laerm;61578;52.002;5.468;2023-01-05T00:45:58;40.27;37.37;43.12;;
73342;Laerm;61578;52.002;5.468;2023-01-05T00:46:28;40.38;37.34;43.79;;
73342;Laerm;61578;52.002;5.468;2023-01-05T00:46:59;40.25;37.56;44.25;;
73342;Laerm;61578;52.002;5.468;2023-01-05T00:47:30;40.40;37.45;43.93;;
73342;Laerm;61578;52.002;5.468;2023-01-05T00:48:01;40.27;37.45;43.58;;
73342;Laerm;61578;52.002;5.468;2023-01-05T00:48:32;40.26;37.53;44.10;;
73342;Laerm;61578;52.002;5.468;2023-01-05T00:49:03;40.40;37.61;43.69;;
73342;Laerm;61578;52.002;5.468;2023-01-05T00:49:34;40.09;37.88;44.36;;
73342;Laerm;61578;52.002;5.468;2023-01-05T00:50:06;40.20;36.92;44.31;;
73342;Laerm;61578;52.002;5.468;2023-01-05T00:50:37;40.18;36.89;44.09;;
73342;Laerm;61578;52.002;5.468;2023-01-05T00:51:08;40.36;37.13;43.74;;
73342;Laerm;61578;52.002;5.468;2023-01-05T00:51:39;40.26;37.34;45.08;;
73342;Laerm;61578;52.002;5.468;2023-01-05T00:52:10;40.16;37.34;43.44;;
73342;Laerm;61578;52.002;5.468;2023-01-05T00:52:42;40.09;37.12;44.27;;
73342;Laerm;61578;52.002;5.468;2023-01-05T00:53:13;40.38;37.70;44.62;;
73342;Laerm;61578;52.002;5.468;2023-01-05T00:53:50;40.46;37.60;44.33;;
73342;Laerm;61578;52.002;5.468;2023-01-05T00:54:21;40.22;37.37;44.54;;
73342;Laerm;61578;52.002;5.468;2023-01-05T00:54:52;40.28;37.36;43.52;;
73342;Laerm;61578;52.002;5.468;2023-01-05T00:55:22;40.38;36.86;44.34;;
73342;Laerm;61578;52.002;5.468;2023-01-05T00:55:57;40.25;37.76;44.04;;
73342;Laerm;61578;52.002;5.468;2023-01-05T00:56:28;40.33;37.52;47.13;;
73342;Laerm;61578;52.002;5.468;2023-01-05T00:57:01;40.38;37.17;44.08;;
73342;Laerm;61578;52.002;5.468;2023-01-05T00:57:32;40.19;37.45;43.63;;
73342;Laerm;61578;52.002;5.468;2023-01-05T00:58:04;40.36;37.52;43.53;;
73342;Laerm;61578;52.002;5.468;2023-01-05T00:58:34;40.21;37.46;43.80;;
73342;Laerm;61578;52.002;5.468;2023-01-05T00:59:05;40.03;37.19;44.29;;
73342;Laerm;61578;52.002;5.468;2023-01-05T00:59:36;40.14;37.35;43.68;;
73342;Laerm;61578;52.002;5.468;2023-01-05T01:00:13;40.27;37.69;43.79;;
73342;Laerm;61578;52.002;5.468;2023-01-05T01:00:49;40.59;37.48;47.70;;
73342;Laerm;61578;52.002;5.468;2023-01-05T01:01:20;40.45;37.45;45.08;;
73342;Laerm;61578;52.002;5.468;2023-01-05T01:01:53;40.38;37.60;45.55;;
73342;Laerm;61578;52.002;5.468;2023-01-05T01:02:24;40.30;37.69;43.82;;
73342;Laerm;61578;52.002;5.468;2023-01-05T01:02:55;40.55;37.35;44.34;;
73342;Laerm;61578;52.002;5.468;2023-01-05T01:03:26;40.30;37.11;44.32;;
73342;Laerm;61578;52.002;5.468;2023-01-05T01:03:57;40.25;37.41;43.65;;
73342;Laerm;61578;52.002;5.468;2023-01-05T01:04:31;40.19;37.52;43.40;;
73342;Laerm;61578;52.002;5.468;2023-01-05T01:05:04;40.31;37.26;46.51;;
73342;Laerm;61578;52.002;5.468;2023-01-05T01:05:35;40.44;37.76;43.89;;
73342;Laerm;61578;52.002;5.468;2023-01-05T01:06:06;40.35;37.42;43.53;;
73342;Laerm;61578;52.002;5.468;2023-01-05T01:06:37;40.28;37.30;44.22;;
73342;Laerm;61578;52.002;5.468;2023-01-05T01:07:08;40.22;37.21;43.97;;
73342;Laerm;61578;52.002;5.468;2023-01-05T01:07:39;40.23;37.29;43.77;;
73342;Laerm;61578;52.002;5.468;2023-01-05T01:08:10;40.09;37.34;43.40;;
73342;Laerm;61578;52.002;5.468;2023-01-05T01:08:41;40.28;37.16;43.85;;
73342;Laerm;61578;52.002;5.468;2023-01-05T01:09:13;40.28;37.36;43.96;;
73342;Laerm;61578;52.002;5.468;2023-01-05T01:09:50;40.21;37.37;43.46;;
73342;Laerm;61578;52.002;5.468;2023-01-05T01:10:20;40.18;37.26;43.89;;
73342;Laerm;61578;52.002;5.468;2023-01-05T01:10:51;40.50;37.39;46.10;;
73342;Laerm;61578;52.002;5.468;2023-01-05T01:11:22;40.24;37.47;43.38;;
73342;Laerm;61578;52.002;5.468;2023-01-05T01:11:53;40.17;36.85;43.50;;
73342;Laerm;61578;52.002;5.468;2023-01-05T01:12:24;40.46;37.57;45.21;;
73342;Laerm;61578;52.002;5.468;2023-01-05T01:12:55;40.12;37.59;43.99;;
73342;Laerm;61578;52.002;5.468;2023-01-05T01:13:26;40.03;37.45;43.70;;
73342;Laerm;61578;52.002;5.468;2023-01-05T01:13:57;40.32;37.56;43.53;;
73342;Laerm;61578;52.002;5.468;2023-01-05T01:14:28;40.95;37.75;50.73;;
73342;Laerm;61578;52.002;5.468;2023-01-05T01:14:59;40.32;37.03;44.20;;
73342;Laerm;61578;52.002;5.468;2023-01-05T01:15:30;40.21;37.56;43.57;;
73342;Laerm;61578;52.002;5.468;2023-01-05T01:16:10;40.27;37.37;43.88;;
73342;Laerm;61578;52.002;5.468;2023-01-05T01:16:41;40.22;37.33;43.50;;
73342;Laerm;61578;52.002;5.468;2023-01-05T01:17:15;40.17;37.36;44.43;;
73342;Laerm;61578;52.002;5.468;2023-01-05T01:17:49;40.03;37.29;43.04;;
73342;Laerm;61578;52.002;5.468;2023-01-05T01:18:19;40.17;37.49;43.39;;
73342;Laerm;61578;52.002;5.468;2023-01-05T01:18:50;40.04;37.26;44.28;;
73342;Laerm;61578;52.002;5.468;2023-01-05T01:19:24;40.15;37.53;43.87;;
73342;Laerm;61578;52.002;5.468;2023-01-05T01:19:56;40.10;37.11;43.34;;
73342;Laerm;61578;52.002;5.468;2023-01-05T01:20:27;39.86;37.24;44.47;;
73342;Laerm;61578;52.002;5.468;2023-01-05T01:20:58;40.05;37.26;44.21;;
73342;Laerm;61578;52.002;5.468;2023-01-05T01:21:29;40.16;36.89;43.45;;
73342;Laerm;61578;52.002;5.468;2023-01-05T01:22:00;40.15;37.55;43.07;;
73342;Laerm;61578;52.002;5.468;2023-01-05T01:22:31;40.09;37.26;43.70;;
73342;Laerm;61578;52.002;5.468;2023-01-05T01:23:02;39.97;37.16;44.03;;
73342;Laerm;61578;52.002;5.468;2023-01-05T01:23:35;40.39;37.29;44.08;;
73342;Laerm;61578;52.002;5.468;2023-01-05T01:24:16;40.24;37.35;44.72;;
73342;Laerm;61578;52.002;5.468;2023-01-05T01:24:48;40.17;37.22;43.17;;
73342;Laerm;61578;52.002;5.468;2023-01-05T01:25:19;39.96;37.26;43.66;;
73342;Laerm;61578;52.002;5.468;2023-01-05T01:25:50;40.06;37.01;44.39;;
73342;Laerm;61578;52.002;5.468;2023-01-05T01:26:20;40.31;37.39;44.39;;
73342;Laerm;61578;52.002;5.468;2023-01-05T01:26:53;39.99;37.23;43.20;;
73342;Laerm;61578;52.002;5.468;2023-01-05T01:27:24;40.01;37.28;43.10;;
73342;Laerm;61578;52.002;5.468;2023-01-05T01:27:55;40.08;37.41;43.84;;
73342;Laerm;61578;52.002;5.468;2023-01-05T01:28:26;40.28;37.36;43.52;;
73342;Laerm;61578;52.002;5.468;2023-01-05T01:28:57;40.53;36.94;44.65;;
73342;Laerm;61578;52.002;5.468;2023-01-05T01:29:28;40.24;37.71;43.58;;
73342;Laerm;61578;52.002;5.468;2023-01-05T01:29:59;40.13;37.62;44.01;;
73342;Laerm;61578;52.002;5.468;2023-01-05T01:30:30;40.31;37.52;43.73;;
73342;Laerm;61578;52.002;5.468;2023-01-05T01:31:01;40.22;37.40;43.83;;
73342;Laerm;61578;52.002;5.468;2023-01-05T01:31:32;40.17;37.56;44.55;;
73342;Laerm;61578;52.002;5.468;2023-01-05T01:32:04;40.31;37.61;44.14;;
73342;Laerm;61578;52.002;5.468;2023-01-05T01:32:35;40.58;37.37;44.98;;
73342;Laerm;61578;52.002;5.468;2023-01-05T01:33:06;40.18;37.62;44.28;;
73342;Laerm;61578;52.002;5.468;2023-01-05T01:33:39;40.28;37.46;44.11;;
73342;Laerm;61578;52.002;5.468;2023-01-05T01:34:10;40.16;37.61;43.50;;
73342;Laerm;61578;52.002;5.468;2023-01-05T01:34:41;40.37;37.63;44.28;;
73342;Laerm;61578;52.002;5.468;2023-01-05T01:35:12;40.28;37.05;44.26;;
73342;Laerm;61578;52.002;5.468;2023-01-05T01:35:44;40.17;37.67;44.66;;
73342;Laerm;61578;52.002;5.468;2023-01-05T01:36:15;40.14;36.87;43.88;;
73342;Laerm;61578;52.002;5.468;2023-01-05T01:36:49;40.32;37.07;44.35;;
73342;Laerm;61578;52.002;5.468;2023-01-05T01:37:19;40.31;37.64;44.54;;
73342;Laerm;61578;52.002;5.468;2023-01-05T01:37:50;40.40;37.48;44.06;;
73342;Laerm;61578;52.002;5.468;2023-01-05T01:38:21;40.13;37.05;43.85;;
73342;Laerm;61578;52.002;5.468;2023-01-05T01:38:55;40.13;37.34;44.35;;
73342;Laerm;61578;52.002;5.468;2023-01-05T01:39:26;40.28;37.28;44.06;;
73342;Laerm;61578;52.002;5.468;2023-01-05T01:39:57;40.28;37.44;44.79;;
73342;Laerm;61578;52.002;5.468;2023-01-05T01:40:28;40.26;37.62;46.22;;
73342;Laerm;61578;52.002;5.468;2023-01-05T01:41:00;40.29;37.13;43.79;;
73342;Laerm;61578;52.002;5.468;2023-01-05T01:41:30;40.30;37.44;43.90;;
73342;Laerm;61578;52.002;5.468;2023-01-05T01:42:01;40.30;37.00;44.80;;
73342;Laerm;61578;52.002;5.468;2023-01-05T01:42:32;40.34;37.85;44.01;;
73342;Laerm;61578;52.002;5.468;2023-01-05T01:43:57;40.18;37.32;44.86;;
73342;Laerm;61578;52.002;5.468;2023-01-05T01:45:24;40.28;37.57;44.42;;
73342;Laerm;61578;52.002;5.468;2023-01-05T01:45:54;40.30;37.74;44.15;;
73342;Laerm;61578;52.002;5.468;2023-01-05T01:46:27;40.14;37.65;43.70;;
73342;Laerm;61578;52.002;5.468;2023-01-05T01:46:58;40.26;37.34;44.46;;
73342;Laerm;61578;52.002;5.468;2023-01-05T01:47:44;40.36;37.57;44.59;;
73342;Laerm;61578;52.002;5.468;2023-01-05T01:48:18;40.37;37.06;44.07;;
73342;Laerm;61578;52.002;5.468;2023-01-05T01:49:09;40.38;37.53;43.90;;
73342;Laerm;61578;52.002;5.468;2023-01-05T01:49:41;40.03;37.50;44.33;;
73342;Laerm;61578;52.002;5.468;2023-01-05T01:50:55;40.36;37.50;44.76;;
73342;Laerm;61578;52.002;5.468;2023-01-05T01:51:42;40.27;37.70;43.94;;
73342;Laerm;61578;52.002;5.468;2023-01-05T01:52:16;40.33;37.49;43.87;;
73342;Laerm;61578;52.002;5.468;2023-01-05T01:52:57;40.43;37.00;44.90;;
73342;Laerm;61578;52.002;5.468;2023-01-05T01:53:38;40.36;36.54;45.21;;
73342;Laerm;61578;52.002;5.468;2023-01-05T01:54:15;40.27;37.26;43.98;;
73342;Laerm;61578;52.002;5.468;2023-01-05T01:54:50;40.18;37.23;43.92;;
73342;Laerm;61578;52.002;5.468;2023-01-05T01:55:22;40.05;36.79;44.61;;
73342;Laerm;61578;52.002;5.468;2023-01-05T01:55:59;40.24;37.54;44.40;;
73342;Laerm;61578;52.002;5.468;2023-01-05T01:56:39;40.11;37.20;44.29;;
73342;Laerm;61578;52.002;5.468;2023-01-05T01:57:12;40.29;36.89;44.06;;
73342;Laerm;61578;52.002;5.468;2023-01-05T01:57:52;40.25;37.29;44.68;;
73342;Laerm;61578;52.002;5.468;2023-01-05T01:58:27;40.42;37.41;44.98;;
73342;Laerm;61578;52.002;5.468;2023-01-05T01:59:00;40.43;37.23;44.55;;
73342;Laerm;61578;52.002;5.468;2023-01-05T01:59:31;40.42;37.69;45.32;;
73342;Laerm;61578;52.002;5.468;2023-01-05T02:00:07;40.26;37.08;43.67;;
73342;Laerm;61578;52.002;5.468;2023-01-05T02:00:40;40.42;37.66;44.22;;
73342;Laerm;61578;52.002;5.468;2023-01-05T02:01:12;40.19;37.67;43.77;;
73342;Laerm;61578;52.002;5.468;2023-01-05T02:01:43;40.24;37.55;44.72;;
73342;Laerm;61578;52.002;5.468;2023-01-05T02:02:17;40.30;37.42;45.84;;
73342;Laerm;61578;52.002;5.468;2023-01-05T02:02:54;40.39;37.73;45.03;;
73342;Laerm;61578;52.002;5.468;2023-01-05T02:03:27;40.41;37.57;44.99;;
73342;Laerm;61578;52.002;5.468;2023-01-05T02:04:00;40.20;37.75;44.16;;
73342;Laerm;61578;52.002;5.468;2023-01-05T02:04:33;40.26;37.10;44.23;;
73342;Laerm;61578;52.002;5.468;2023-01-05T02:05:10;40.26;37.17;44.28;;
73342;Laerm;61578;52.002;5.468;2023-01-05T02:05:42;40.23;37.47;45.06;;
73342;Laerm;61578;52.002;5.468;2023-01-05T02:06:13;40.29;37.34;44.42;;
73342;Laerm;61578;52.002;5.468;2023-01-05T02:06:52;40.31;37.31;44.31;;
73342;Laerm;61578;52.002;5.468;2023-01-05T02:07:33;40.07;37.32;44.11;;
73342;Laerm;61578;52.002;5.468;2023-01-05T02:08:14;40.24;37.42;44.27;;
73342;Laerm;61578;52.002;5.468;2023-01-05T02:08:48;40.22;37.13;44.02;;
73342;Laerm;61578;52.002;5.468;2023-01-05T02:09:20;40.32;37.32;44.89;;
73342;Laerm;61578;52.002;5.468;2023-01-05T02:09:51;40.15;37.14;45.11;;
73342;Laerm;61578;52.002;5.468;2023-01-05T02:11:10;40.25;37.23;44.21;;
73342;Laerm;61578;52.002;5.468;2023-01-05T02:18:01;40.41;37.47;45.07;;
73342;Laerm;61578;52.002;5.468;2023-01-05T02:20:05;40.52;37.51;45.18;;
73342;Laerm;61578;52.002;5.468;2023-01-05T02:22:04;40.98;38.10;49.42;;
73342;Laerm;61578;52.002;5.468;2023-01-05T02:25:37;40.89;37.68;45.09;;
73342;Laerm;61578;52.002;5.468;2023-01-05T02:30:47;41.22;38.20;45.56;;
73342;Laerm;61578;52.002;5.468;2023-01-05T02:31:57;41.29;38.17;48.59;;
73342;Laerm;61578;52.002;5.468;2023-01-05T02:34:13;41.45;38.46;45.46;;
73342;Laerm;61578;52.002;5.468;2023-01-05T02:35:21;41.28;37.42;45.55;;
73342;Laerm;61578;52.002;5.468;2023-01-05T02:37:34;41.66;37.91;48.49;;
73342;Laerm;61578;52.002;5.468;2023-01-05T02:40:17;41.40;38.19;45.33;;
73342;Laerm;61578;52.002;5.468;2023-01-05T02:40:25;42.23;38.09;54.05;;
73342;Laerm;61578;52.002;5.468;2023-01-05T02:41:07;41.76;38.46;47.31;;
73342;Laerm;61578;52.002;5.468;2023-01-05T02:42:00;41.28;38.55;44.95;;
73342;Laerm;61578;52.002;5.468;2023-01-05T02:42:35;41.32;37.56;45.91;;
73342;Laerm;61578;52.002;5.468;2023-01-05T02:43:12;41.50;38.83;45.78;;
73342;Laerm;61578;52.002;5.468;2023-01-05T02:43:50;41.29;38.29;45.23;;
73342;Laerm;61578;52.002;5.468;2023-01-05T02:44:21;41.62;38.95;45.52;;
73342;Laerm;61578;52.002;5.468;2023-01-05T02:44:52;41.33;37.91;45.55;;
73342;Laerm;61578;52.002;5.468;2023-01-05T02:45:23;41.50;38.95;45.23;;
73342;Laerm;61578;52.002;5.468;2023-01-05T02:45:54;41.50;38.51;45.59;;
73342;Laerm;61578;52.002;5.468;2023-01-05T02:46:25;41.63;38.97;46.33;;
73342;Laerm;61578;52.002;5.468;2023-01-05T02:47:55;41.30;38.46;45.17;;
73342;Laerm;61578;52.002;5.468;2023-01-05T02:48:26;41.34;38.21;45.58;;
73342;Laerm;61578;52.002;5.468;2023-01-05T02:49:01;41.33;38.25;45.31;;
73342;Laerm;61578;52.002;5.468;2023-01-05T02:49:39;41.32;38.28;45.96;;
73342;Laerm;61578;52.002;5.468;2023-01-05T02:50:37;41.08;37.93;45.25;;
73342;Laerm;61578;52.002;5.468;2023-01-05T02:51:22;41.00;37.66;45.48;;
73342;Laerm;61578;52.002;5.468;2023-01-05T02:51:59;41.13;38.25;45.66;;
73342;Laerm;61578;52.002;5.468;2023-01-05T02:53:29;41.15;37.67;45.19;;
73342;Laerm;61578;52.002;5.468;2023-01-05T02:53:50;41.20;38.26;46.02;;
73342;Laerm;61578;52.002;5.468;2023-01-05T02:54:33;41.24;38.02;44.87;;
73342;Laerm;61578;52.002;5.468;2023-01-05T02:55:12;41.24;38.03;45.42;;
73342;Laerm;61578;52.002;5.468;2023-01-05T02:56:05;41.27;38.08;44.87;;
73342;Laerm;61578;52.002;5.468;2023-01-05T02:57:36;41.20;38.28;46.05;;
73342;Laerm;61578;52.002;5.468;2023-01-05T02:58:35;41.29;37.79;45.18;;
73342;Laerm;61578;52.002;5.468;2023-01-05T02:59:35;41.19;38.30;45.34;;
73342;Laerm;61578;52.002;5.468;2023-01-05T03:00:09;41.23;38.38;45.95;;
73342;Laerm;61578;52.002;5.468;2023-01-05T03:00:57;41.33;38.35;45.66;;
73342;Laerm;61578;52.002;5.468;2023-01-05T03:01:43;41.37;38.25;45.37;;
73342;Laerm;61578;52.002;5.468;2023-01-05T03:02:26;41.31;38.34;45.17;;
73342;Laerm;61578;52.002;5.468;2023-01-05T03:03:41;41.47;38.43;45.64;;
73342;Laerm;61578;52.002;5.468;2023-01-05T03:04:30;41.03;37.92;45.96;;
73342;Laerm;61578;52.002;5.468;2023-01-05T03:05:14;40.51;36.91;44.38;;
73342;Laerm;61578;52.002;5.468;2023-01-05T03:07:22;40.75;37.90;45.35;;
73342;Laerm;61578;52.002;5.468;2023-01-05T03:07:59;40.53;37.60;45.06;;
73342;Laerm;61578;52.002;5.468;2023-01-05T03:08:58;40.54;37.24;44.31;;
73342;Laerm;61578;52.002;5.468;2023-01-05T03:09:37;40.75;37.79;44.08;;
73342;Laerm;61578;52.002;5.468;2023-01-05T03:10:13;40.68;38.03;45.07;;
73342;Laerm;61578;52.002;5.468;2023-01-05T03:11:05;41.35;38.10;49.80;;
73342;Laerm;61578;52.002;5.468;2023-01-05T03:13:29;40.75;37.38;45.10;;
73342;Laerm;61578;52.002;5.468;2023-01-05T03:14:45;41.28;37.75;52.81;;
73342;Laerm;61578;52.002;5.468;2023-01-05T03:15:33;40.76;37.52;45.28;;
73342;Laerm;61578;52.002;5.468;2023-01-05T03:16:12;40.89;38.00;44.42;;
73342;Laerm;61578;52.002;5.468;2023-01-05T03:16:50;40.85;38.20;45.80;;
73342;Laerm;61578;52.002;5.468;2023-01-05T03:17:32;40.80;37.70;45.20;;
73342;Laerm;61578;52.002;5.468;2023-01-05T03:18:16;40.88;37.98;45.29;;
73342;Laerm;61578;52.002;5.468;2023-01-05T03:18:53;41.94;38.16;57.70;;
73342;Laerm;61578;52.002;5.468;2023-01-05T03:19:47;40.46;37.51;45.25;;
73342;Laerm;61578;52.002;5.468;2023-01-05T03:20:26;40.27;37.17;45.10;;
73342;Laerm;61578;52.002;5.468;2023-01-05T03:21:00;40.53;37.35;44.31;;
73342;Laerm;61578;52.002;5.468;2023-01-05T03:21:31;40.52;37.57;44.23;;
73342;Laerm;61578;52.002;5.468;2023-01-05T03:22:28;40.60;37.79;44.49;;
73342;Laerm;61578;52.002;5.468;2023-01-05T03:23:21;40.53;37.75;44.37;;
73342;Laerm;61578;52.002;5.468;2023-01-05T03:24:12;40.68;37.78;45.13;;
73342;Laerm;61578;52.002;5.468;2023-01-05T03:25:04;40.63;37.35;44.69;;
73342;Laerm;61578;52.002;5.468;2023-01-05T03:25:54;41.28;37.71;48.85;;
73342;Laerm;61578;52.002;5.468;2023-01-05T03:26:50;40.77;37.91;45.63;;
73342;Laerm;61578;52.002;5.468;2023-01-05T03:27:42;40.61;37.28;45.25;;
73342;Laerm;61578;52.002;5.468;2023-01-05T03:28:56;40.92;38.09;44.98;;
73342;Laerm;61578;52.002;5.468;2023-01-05T03:29:52;41.13;37.69;47.28;;
73342;Laerm;61578;52.002;5.468;2023-01-05T03:31:12;40.65;37.69;48.82;;
73342;Laerm;61578;52.002;5.468;2023-01-05T03:32:24;40.45;37.42;45.72;;
73342;Laerm;61578;52.002;5.468;2023-01-05T03:35:33;40.41;37.54;45.27;;
73342;Laerm;61578;52.002;5.468;2023-01-05T03:36:15;40.79;37.18;46.69;;
73342;Laerm;61578;52.002;5.468;2023-01-05T03:36:56;40.44;37.75;45.36;;
73342;Laerm;61578;52.002;5.468;2023-01-05T03:37:37;40.63;37.15;47.85;;
73342;Laerm;61578;52.002;5.468;2023-01-05T03:38:22;40.50;37.24;44.73;;
73342;Laerm;61578;52.002;5.468;2023-01-05T03:39:00;40.34;37.96;44.85;;
73342;Laerm;61578;52.002;5.468;2023-01-05T03:39:39;40.38;37.50;44.20;;
73342;Laerm;61578;52.002;5.468;2023-01-05T03:40:20;40.67;37.75;44.81;;
73342;Laerm;61578;52.002;5.468;2023-01-05T03:40:58;40.34;37.56;44.21;;
73342;Laerm;61578;52.002;5.468;2023-01-05T03:41:32;40.52;37.24;44.07;;
73342;Laerm;61578;52.002;5.468;2023-01-05T03:42:04;40.19;37.09;44.22;;
73342;Laerm;61578;52.002;5.468;2023-01-05T03:42:37;40.25;37.20;43.81;;
73342;Laerm;61578;52.002;5.468;2023-01-05T03:43:09;40.33;37.80;44.46;;
73342;Laerm;61578;52.002;5.468;2023-01-05T03:43:41;40.21;37.12;44.75;;
73342;Laerm;61578;52.002;5.468;2023-01-05T03:44:13;40.28;37.42;44.35;;
73342;Laerm;61578;52.002;5.468;2023-01-05T03:44:50;40.46;37.50;44.55;;
73342;Laerm;61578;52.002;5.468;2023-01-05T03:45:24;40.60;37.83;45.53;;
73342;Laerm;61578;52.002;5.468;2023-01-05T03:45:57;40.62;37.29;44.15;;
73342;Laerm;61578;52.002;5.468;2023-01-05T03:46:27;40.41;37.76;44.48;;
73342;Laerm;61578;52.002;5.468;2023-01-05T03:46:58;40.42;37.40;43.86;;
73342;Laerm;61578;52.002;5.468;2023-01-05T03:47:29;40.25;37.56;43.49;;
73342;Laerm;61578;52.002;5.468;2023-01-05T03:48:00;40.65;37.58;44.33;;
73342;Laerm;61578;52.002;5.468;2023-01-05T03:48:31;40.37;37.22;44.11;;
73342;Laerm;61578;52.002;5.468;2023-01-05T03:49:01;40.17;37.38;43.51;;
73342;Laerm;61578;52.002;5.468;2023-01-05T03:49:36;40.50;37.70;44.84;;
73342;Laerm;61578;52.002;5.468;2023-01-05T03:50:08;40.44;37.88;44.98;;
73342;Laerm;61578;52.002;5.468;2023-01-05T03:50:39;40.38;37.56;44.16;;
73342;Laerm;61578;52.002;5.468;2023-01-05T03:51:10;40.38;37.42;44.09;;
73342;Laerm;61578;52.002;5.468;2023-01-05T03:51:41;40.74;36.91;49.40;;
73342;Laerm;61578;52.002;5.468;2023-01-05T03:52:11;40.91;37.66;47.68;;
73342;Laerm;61578;52.002;5.468;2023-01-05T03:52:42;40.31;37.11;43.94;;
73342;Laerm;61578;52.002;5.468;2023-01-05T03:53:13;40.54;37.44;44.93;;
73342;Laerm;61578;52.002;5.468;2023-01-05T03:53:49;40.47;37.47;45.17;;
73342;Laerm;61578;52.002;5.468;2023-01-05T03:54:20;40.51;37.71;44.65;;
73342;Laerm;61578;52.002;5.468;2023-01-05T03:54:51;40.09;37.00;44.83;;
73342;Laerm;61578;52.002;5.468;2023-01-05T03:55:22;40.24;37.13;44.37;;
73342;Laerm;61578;52.002;5.468;2023-01-05T03:55:53;40.33;37.57;44.53;;